Time;durP1;ratioP1;P1;durP2;ratioP2;P2;SDS_P1;SDS_P2;PMS_P1;PMS_P2;Temp;Humidity;BMP_temperature;BMP_pressure;BME280_temperature;BME280_humidity;BME280_pressure;Samples;Min_cycle;Max_cycle;Signal;HPM_P1;HPM_P2
2023/11/14 00:00:21;;;;;;;7.55;2.25;;;;;;;11.97;82.43;99182.41;10198295;28;20114;-66
2023/11/14 00:05:23;;;;;;;7.85;1.98;;;;;;;11.94;83.33;99180.03;10200305;28;20142;-67
2023/11/14 00:10:24;;;;;;;7.22;2.40;;;;;;;11.92;83.49;99191.81;10215739;28;20051;-66
2023/11/14 00:15:26;;;;;;;8.40;1.90;;;;;;;11.90;83.06;99194.66;10200463;28;20074;-66
2023/11/14 00:20:28;;;;;;;7.25;1.65;;;;;;;11.90;83.73;99183.97;10204797;28;20051;-66
2023/11/14 00:25:29;;;;;;;8.85;3.47;;;;;;;11.81;82.45;99198.25;10202455;28;20043;-66
2023/11/14 00:30:31;;;;;;;8.95;2.28;;;;;;;11.74;82.83;99186.56;10202442;28;20055;-66
2023/11/14 00:35:32;;;;;;;5.03;1.85;;;;;;;11.77;83.99;99192.44;10199110;28;20146;-66
2023/11/14 00:40:34;;;;;;;13.23;2.85;;;;;;;11.75;83.20;99205.06;10206662;28;20517;-66
2023/11/14 00:45:35;;;;;;;9.57;1.85;;;;;;;11.68;83.11;99202.19;10200553;28;20055;-66
2023/11/14 00:50:39;;;;;;;11.67;2.60;;;;;;;11.66;82.30;99217.53;10198494;28;20067;-65
2023/11/14 00:55:40;;;;;;;4.32;1.58;;;;;;;11.61;81.91;99198.47;10201518;28;20721;-66
2023/11/14 01:00:42;;;;;;;8.48;2.40;;;;;;;11.53;82.62;99195.75;10197568;28;20055;-67
2023/11/14 01:05:46;;;;;;;9.57;3.17;;;;;;;11.52;83.26;99191.41;10190437;28;20213;-66
2023/11/14 01:10:47;;;;;;;12.15;2.13;;;;;;;11.47;83.69;99185.72;10196413;28;20055;-65
2023/11/14 01:15:49;;;;;;;9.50;2.60;;;;;;;11.52;83.41;99196.75;10198835;28;20047;-66
2023/11/14 01:20:51;;;;;;;7.38;2.13;;;;;;;11.49;83.25;99199.72;10211638;28;20051;-66
2023/11/14 01:25:53;;;;;;;11.68;2.63;;;;;;;11.49;83.29;99195.22;10212842;28;20080;-65
2023/11/14 01:30:54;;;;;;;13.73;2.88;;;;;;;11.44;83.23;99186.00;10196545;28;20067;-65
2023/11/14 01:35:56;;;;;;;9.45;2.92;;;;;;;11.40;83.40;99185.50;10205224;28;20050;-67
2023/11/14 01:40:57;;;;;;;11.02;2.38;;;;;;;11.30;84.63;99174.94;10197911;28;20075;-65
2023/11/14 01:45:59;;;;;;;12.77;3.13;;;;;;;11.21;85.30;99183.00;10196705;28;20071;-64
2023/11/14 01:51:01;;;;;;;10.15;3.00;;;;;;;11.19;85.40;99179.69;10195669;28;20070;-66
2023/11/14 01:56:02;;;;;;;11.00;2.75;;;;;;;11.13;86.09;99183.78;10207336;28;20726;-65
2023/11/14 02:01:04;;;;;;;12.40;3.10;;;;;;;11.05;86.43;99192.53;10200270;28;20055;-65
2023/11/14 02:06:08;;;;;;;12.10;2.83;;;;;;;11.11;86.60;99204.41;10180535;28;20075;-66
2023/11/14 02:11:10;;;;;;;10.27;3.45;;;;;;;11.13;86.09;99215.75;10203989;28;20643;-66
2023/11/14 02:16:12;;;;;;;12.55;2.45;;;;;;;11.13;86.20;99210.41;10213005;28;20408;-65
2023/11/14 02:21:13;;;;;;;11.18;3.22;;;;;;;11.07;86.23;99200.38;10204034;28;20055;-66
2023/11/14 02:26:16;;;;;;;9.38;2.45;;;;;;;11.11;86.35;99205.25;10205738;28;20051;-66
2023/11/14 02:31:17;;;;;;;11.60;3.28;;;;;;;11.08;86.26;99205.56;10219045;28;20047;-68
2023/11/14 02:36:19;;;;;;;12.43;2.97;;;;;;;10.95;86.64;99221.91;10218531;28;21729;-65
2023/11/14 02:41:20;;;;;;;8.60;2.63;;;;;;;10.92;86.78;99226.69;10210568;28;20047;-66
2023/11/14 02:46:22;;;;;;;8.48;2.25;;;;;;;10.88;86.74;99228.81;10205937;28;20480;-65
2023/11/14 02:51:24;;;;;;;12.18;2.80;;;;;;;10.96;86.30;99268.84;10205373;28;20067;-66
2023/11/14 02:56:26;;;;;;;12.02;2.50;;;;;;;10.99;85.94;99272.19;10222501;28;20044;-65
2023/11/14 03:01:27;;;;;;;14.75;3.08;;;;;;;10.91;85.42;99275.59;10216018;28;20129;-66
2023/11/14 03:06:29;;;;;;;8.20;2.90;;;;;;;10.92;85.27;99278.13;10201623;28;20771;-65
2023/11/14 03:11:30;;;;;;;8.85;2.42;;;;;;;10.88;84.95;99271.41;10231610;28;20055;-66
2023/11/14 03:16:32;;;;;;;8.27;2.13;;;;;;;10.93;84.91;99285.13;10209570;28;20139;-66
2023/11/14 03:21:33;;;;;;;10.45;2.78;;;;;;;10.94;84.76;99281.47;10202523;28;20062;-67
2023/11/14 03:26:35;;;;;;;7.28;2.47;;;;;;;10.95;84.41;99288.47;10203796;28;20130;-66
2023/11/14 03:31:37;;;;;;;7.28;3.28;;;;;;;11.01;83.97;99292.34;10204993;28;20157;-66
2023/11/14 03:36:39;;;;;;;7.80;2.20;;;;;;;10.99;83.71;99288.16;10216063;28;20731;-67
2023/11/14 03:41:41;;;;;;;10.77;2.90;;;;;;;11.04;83.11;99304.53;10203690;28;20104;-66
2023/11/14 03:46:42;;;;;;;12.02;2.65;;;;;;;11.02;83.44;99322.47;10201351;28;20057;-66
2023/11/14 03:51:44;;;;;;;10.95;2.70;;;;;;;11.00;83.56;99332.44;10206141;28;20682;-66
2023/11/14 03:56:45;;;;;;;13.65;2.78;;;;;;;10.99;82.56;99314.78;10200884;28;20098;-66
2023/11/14 04:01:47;;;;;;;13.85;3.53;;;;;;;11.01;83.89;99324.31;10202951;28;20114;-67
2023/11/14 04:06:48;;;;;;;12.98;3.80;;;;;;;10.90;82.99;99321.84;10206177;28;20067;-66
2023/11/14 04:11:50;;;;;;;15.48;3.78;;;;;;;10.94;83.38;99345.38;10199195;28;20069;-66
2023/11/14 04:16:51;;;;;;;13.63;2.55;;;;;;;10.87;83.23;99325.66;10201089;28;20047;-66
2023/11/14 04:21:53;;;;;;;11.60;3.47;;;;;;;10.90;83.82;99312.03;10195765;28;20057;-66
2023/11/14 04:26:58;;;;;;;12.93;3.20;;;;;;;10.91;84.01;99324.38;10200695;28;20051;-66
2023/11/14 04:32:01;;;;;;;7.10;2.85;;;;;;;10.90;83.66;99314.72;10199299;28;20151;-65
2023/11/14 04:37:04;;;;;;;12.18;2.92;;;;;;;10.85;83.85;99311.63;10199099;28;20086;-66
2023/11/14 04:42:06;;;;;;;10.13;2.83;;;;;;;10.89;84.09;99320.19;10202692;28;20051;-68
2023/11/14 04:47:09;;;;;;;9.30;2.72;;;;;;;10.93;84.55;99318.91;10202791;28;20740;-65
2023/11/14 04:52:10;;;;;;;11.88;3.33;;;;;;;10.88;83.96;99324.66;10199615;28;20047;-66
2023/11/14 04:57:12;;;;;;;11.13;2.90;;;;;;;10.86;84.69;99321.31;10202788;28;20178;-67
2023/11/14 05:02:14;;;;;;;8.30;2.88;;;;;;;10.83;84.71;99310.97;10197992;28;20161;-66
2023/11/14 05:07:17;;;;;;;10.73;3.25;;;;;;;10.86;85.01;99315.16;10201676;28;20536;-66
2023/11/14 05:12:19;;;;;;;12.82;3.92;;;;;;;10.82;85.33;99332.41;10188739;28;20047;-66
2023/11/14 05:17:23;;;;;;;14.67;3.27;;;;;;;10.76;85.38;99307.19;10196393;28;20083;-66
2023/11/14 05:22:25;;;;;;;12.23;3.15;;;;;;;10.76;86.22;99312.53;10204912;28;20110;-66
2023/11/14 05:27:26;;;;;;;9.98;2.83;;;;;;;10.80;86.62;99308.59;10203927;28;20122;-66
2023/11/14 05:32:28;;;;;;;14.52;2.97;;;;;;;10.85;86.92;99327.59;10212234;28;20051;-66
2023/11/14 05:37:30;;;;;;;8.75;3.15;;;;;;;10.83;87.34;99326.09;10201936;28;22010;-66
2023/11/14 05:42:33;;;;;;;14.18;3.47;;;;;;;10.82;88.08;99325.25;10207965;28;20089;-65
2023/11/14 05:47:34;;;;;;;13.27;2.83;;;;;;;10.83;88.48;99324.28;10208240;28;20051;-66
2023/11/14 05:52:36;;;;;;;14.52;4.13;;;;;;;10.90;88.71;99317.38;10208092;28;20185;-67
2023/11/14 05:57:37;;;;;;;11.10;3.22;;;;;;;10.83;89.03;99316.28;10206463;28;20067;-67
2023/11/14 06:02:39;;;;;;;15.32;2.63;;;;;;;10.84;89.71;99325.09;10215370;28;20074;-67
2023/11/14 06:07:42;;;;;;;9.55;3.28;;;;;;;10.87;90.08;99315.00;10185285;28;20141;-67
2023/11/14 06:12:44;;;;;;;8.13;3.28;;;;;;;10.88;89.77;99327.31;10205877;28;20141;-68
2023/11/14 06:17:46;;;;;;;9.80;3.22;;;;;;;10.85;90.24;99334.75;10211181;28;20078;-67
2023/11/14 06:22:49;;;;;;;10.45;2.70;;;;;;;10.85;90.44;99298.31;10206376;28;20561;-67
2023/11/14 06:27:51;;;;;;;7.67;3.40;;;;;;;10.82;90.98;99301.28;10210855;28;20528;-68
2023/11/14 06:32:52;;;;;;;8.38;3.42;;;;;;;10.86;91.12;99337.28;10202367;28;22174;-68
2023/11/14 06:37:55;;;;;;;7.72;3.00;;;;;;;10.93;90.95;99333.06;10206662;28;20059;-67
2023/11/14 06:42:57;;;;;;;7.68;2.45;;;;;;;10.93;91.24;99322.41;10209885;28;20170;-67
2023/11/14 06:47:59;;;;;;;11.00;2.72;;;;;;;11.00;91.43;99343.09;10207482;28;20063;-67
2023/11/14 06:53:01;;;;;;;12.40;2.80;;;;;;;10.98;91.45;99345.09;10209683;28;20509;-67
2023/11/14 06:58:03;;;;;;;18.00;3.80;;;;;;;11.04;91.45;99369.28;10215072;28;20813;-67
2023/11/14 07:03:04;;;;;;;9.70;2.45;;;;;;;11.09;91.63;99355.53;10207341;28;20514;-66
2023/11/14 07:08:05;;;;;;;10.35;2.65;;;;;;;11.14;91.51;99366.59;10224124;28;20067;-68
2023/11/14 07:13:07;;;;;;;8.73;3.00;;;;;;;11.18;91.40;99383.91;10207342;28;20514;-67
2023/11/14 07:18:10;;;;;;;10.82;2.35;;;;;;;11.23;91.25;99379.00;10211929;28;20062;-68
2023/11/14 07:23:11;;;;;;;14.95;4.05;;;;;;;11.31;91.07;99367.59;10210063;28;20050;-68
2023/11/14 07:28:13;;;;;;;13.73;2.75;;;;;;;11.32;91.14;99364.78;10203297;28;20749;-68
2023/11/14 07:33:15;;;;;;;12.00;2.45;;;;;;;11.37;91.43;99371.50;10197980;28;20059;-67
2023/11/14 07:38:16;;;;;;;8.82;2.72;;;;;;;11.47;91.40;99386.44;10221157;28;20149;-69
2023/11/14 07:43:23;;;;;;;12.77;3.38;;;;;;;11.55;90.90;99391.00;10210897;28;20421;-69
2023/11/14 07:48:24;;;;;;;9.15;2.58;;;;;;;11.59;90.68;99396.84;10221639;28;20075;-67
2023/11/14 07:53:27;;;;;;;10.23;2.75;;;;;;;11.61;91.09;99402.88;10208255;28;20051;-67
2023/11/14 07:58:29;;;;;;;6.45;2.40;;;;;;;11.68;90.89;99414.63;10203607;28;20131;-70
2023/11/14 08:03:31;;;;;;;9.23;2.80;;;;;;;11.77;90.75;99426.19;10199717;28;20155;-69
2023/11/14 08:08:32;;;;;;;11.13;2.95;;;;;;;11.79;90.81;99408.22;10204347;28;20055;-69
2023/11/14 08:13:34;;;;;;;17.63;3.17;;;;;;;11.86;90.57;99414.63;10201958;28;20067;-68
2023/11/14 08:18:35;;;;;;;13.57;2.85;;;;;;;11.85;90.51;99340.97;10202511;28;20055;-67
2023/11/14 08:23:42;;;;;;;7.17;1.70;;;;;;;11.82;90.02;99365.25;10198521;28;20047;-68
2023/11/14 08:28:43;;;;;;;8.65;2.88;;;;;;;11.87;89.69;99335.47;10205227;28;20296;-66
2023/11/14 08:33:45;;;;;;;8.55;2.80;;;;;;;11.84;89.23;99342.78;10193689;28;21527;-68
2023/11/14 08:38:46;;;;;;;10.80;2.90;;;;;;;11.90;89.32;99329.81;10201993;28;20070;-69
2023/11/14 08:43:48;;;;;;;11.93;3.65;;;;;;;11.95;88.49;99357.75;10203805;28;20628;-68
2023/11/14 08:48:50;;;;;;;11.23;3.17;;;;;;;12.02;88.45;99384.63;10219586;28;20521;-68
2023/11/14 08:53:52;;;;;;;6.78;2.50;;;;;;;12.09;87.98;99400.88;10202180;28;20097;-68
2023/11/14 08:58:54;;;;;;;12.65;2.67;;;;;;;12.12;87.52;99409.38;10199854;28;20053;-68
2023/11/14 09:03:55;;;;;;;11.98;2.67;;;;;;;12.17;87.31;99395.56;10203288;28;20066;-68
2023/11/14 09:08:57;;;;;;;12.25;2.85;;;;;;;12.18;86.79;99386.59;10202738;28;20138;-68
2023/11/14 09:13:59;;;;;;;9.30;2.47;;;;;;;12.20;86.73;99363.25;10202523;28;20055;-68
2023/11/14 09:19:00;;;;;;;7.78;2.45;;;;;;;12.25;86.51;99366.31;10201680;28;20062;-68
2023/11/14 09:24:04;;;;;;;8.05;3.08;;;;;;;12.30;86.01;99380.00;10224984;28;20079;-67
2023/11/14 09:29:06;;;;;;;10.00;2.63;;;;;;;12.31;86.25;99360.34;10211740;28;20049;-67
2023/11/14 09:34:09;;;;;;;7.68;2.70;;;;;;;12.32;85.72;99371.84;10198419;28;20107;-67
2023/11/14 09:39:12;;;;;;;8.32;3.50;;;;;;;12.33;85.89;99397.53;10209592;28;20154;-68
2023/11/14 09:44:27;;;;;;;10.05;2.28;;;;;;;12.40;85.73;99406.59;10207683;28;20071;-68
2023/11/14 09:49:29;;;;;;;10.27;2.72;;;;;;;12.40;85.70;99403.09;10210907;28;20059;-69
2023/11/14 09:54:32;;;;;;;7.78;2.28;;;;;;;12.40;85.76;99379.06;10208051;28;20149;-68
2023/11/14 09:59:35;;;;;;;7.82;2.55;;;;;;;12.38;86.21;99353.38;10225004;28;20057;-68
2023/11/14 10:04:44;;;;;;;9.53;2.00;;;;;;;12.36;86.46;99390.06;10209390;28;20076;-66
2023/11/14 10:09:47;;;;;;;11.30;2.65;;;;;;;12.33;86.93;99401.03;10207449;28;20523;-68
2023/11/14 10:14:49;;;;;;;9.32;2.10;;;;;;;12.32;87.33;99417.22;10207378;28;20668;-67
2023/11/14 10:19:59;;;;;;;8.65;3.08;;;;;;;12.34;87.80;99456.09;10207996;28;20158;-68
2023/11/14 10:25:02;;;;;;;7.65;2.22;;;;;;;12.34;87.63;99420.53;10210170;28;20095;-68
2023/11/14 10:30:06;;;;;;;9.32;2.22;;;;;;;12.36;87.89;99406.06;10205990;28;20051;-67
2023/11/14 10:35:17;;;;;;;10.40;2.08;;;;;;;12.40;88.26;99408.41;10205609;28;20058;-68
2023/11/14 10:40:18;;;;;;;10.80;3.20;;;;;;;12.41;88.14;99412.78;10206437;28;20510;-68
2023/11/14 10:45:20;;;;;;;10.68;2.60;;;;;;;12.42;88.14;99401.13;10216979;28;20058;-66
2023/11/14 10:50:27;;;;;;;12.20;2.50;;;;;;;12.45;87.95;99355.44;10208568;28;20055;-68
2023/11/14 10:55:29;;;;;;;10.00;2.58;;;;;;;12.53;87.88;99344.78;10205708;28;20059;-67
2023/11/14 11:00:32;;;;;;;9.98;2.92;;;;;;;12.49;87.02;99335.41;10200917;28;20101;-68
2023/11/14 11:05:34;;;;;;;8.80;2.97;;;;;;;12.54;87.24;99335.78;10214180;28;20126;-68
2023/11/14 11:10:37;;;;;;;11.35;2.50;;;;;;;12.55;87.05;99340.13;10205301;28;20291;-67
2023/11/14 11:15:48;;;;;;;8.25;2.55;;;;;;;12.62;86.57;99319.78;10221308;28;20058;-67
2023/11/14 11:20:50;;;;;;;10.73;2.50;;;;;;;12.58;86.12;99326.47;10206877;28;20070;-67
2023/11/14 11:26:11;;;;;;;6.20;2.28;;;;;;;12.60;85.68;99308.44;10206758;28;20055;-69
2023/11/14 11:31:23;;;;;;;11.45;3.25;;;;;;;12.66;86.01;99305.13;10194253;28;20467;-68
2023/11/14 11:36:26;;;;;;;9.48;3.10;;;;;;;12.68;86.15;99305.81;10204963;28;20058;-67
2023/11/14 11:41:34;;;;;;;8.93;2.55;;;;;;;12.73;85.98;99300.84;10212498;28;20128;-68
2023/11/14 11:46:40;;;;;;;8.93;2.60;;;;;;;12.79;85.88;99304.69;10206312;28;21074;-67
2023/11/14 11:51:46;;;;;;;8.85;2.67;;;;;;;12.79;85.49;99306.53;10204787;28;20059;-68
2023/11/14 11:56:47;;;;;;;11.55;2.88;;;;;;;12.83;85.59;99289.19;10202750;28;20058;-68
2023/11/14 12:01:53;;;;;;;9.48;2.97;;;;;;;12.80;85.48;99282.31;10206845;28;20191;-68
2023/11/14 12:06:55;;;;;;;9.97;2.50;;;;;;;12.86;85.20;99272.84;10207657;28;20048;-67
2023/11/14 12:11:57;;;;;;;7.07;2.72;;;;;;;12.80;85.12;99262.81;10200429;28;20062;-68
2023/11/14 12:17:06;;;;;;;6.97;2.65;;;;;;;12.87;85.23;99269.16;10204097;28;20066;-67
2023/11/14 12:22:11;;;;;;;8.15;2.30;;;;;;;12.89;85.06;99277.84;10217231;28;20160;-67
2023/11/14 12:27:14;;;;;;;10.70;2.83;;;;;;;12.95;85.09;99266.50;10204907;28;20061;-67
2023/11/14 12:32:16;;;;;;;8.63;2.50;;;;;;;12.95;84.90;99261.16;10198938;28;20057;-66
2023/11/14 12:37:19;;;;;;;8.02;2.40;;;;;;;12.96;85.22;99268.19;10210683;28;20089;-67
2023/11/14 12:42:22;;;;;;;9.63;2.58;;;;;;;13.01;85.16;99262.34;10190814;28;20050;-66
2023/11/14 12:47:25;;;;;;;7.07;3.28;;;;;;;13.05;85.53;99263.72;10212423;28;20043;-66
2023/11/14 12:52:28;;;;;;;8.27;2.42;;;;;;;13.05;85.55;99261.88;10209409;28;20058;-68
2023/11/14 12:57:29;;;;;;;10.23;1.92;;;;;;;13.08;85.33;99250.84;10201455;28;20099;-67
2023/11/14 13:02:31;;;;;;;12.75;3.45;;;;;;;13.12;85.29;99245.19;10193040;28;20149;-66
2023/11/14 13:07:37;;;;;;;6.32;2.22;;;;;;;13.22;84.20;99236.00;10200565;28;20892;-68
2023/11/14 13:12:38;;;;;;;8.27;1.95;;;;;;;13.37;83.87;99236.22;10202462;28;20090;-67
2023/11/14 13:17:41;;;;;;;9.07;3.15;;;;;;;13.38;83.37;99239.75;10205249;28;20043;-67
2023/11/14 13:22:44;;;;;;;7.80;2.47;;;;;;;13.37;82.72;99206.81;10201295;28;20052;-67
2023/11/14 13:27:45;;;;;;;6.35;1.67;;;;;;;13.32;82.52;99195.75;10204586;28;20055;-68
2023/11/14 13:32:47;;;;;;;6.95;1.90;;;;;;;13.31;82.43;99188.75;10210643;28;20618;-66
2023/11/14 13:37:48;;;;;;;8.02;2.00;;;;;;;13.26;82.33;99172.38;10200464;28;20059;-68
2023/11/14 13:42:50;;;;;;;7.30;2.83;;;;;;;13.29;81.22;99161.34;10197193;28;20055;-67
2023/11/14 13:47:51;;;;;;;10.10;2.13;;;;;;;13.34;81.63;99159.03;10216291;28;20048;-67
2023/11/14 13:52:53;;;;;;;7.22;1.52;;;;;;;13.28;80.92;99149.00;10200856;28;20114;-68
2023/11/14 13:57:55;;;;;;;7.32;1.83;;;;;;;13.31;81.02;99143.31;10201199;28;20055;-67
2023/11/14 14:02:57;;;;;;;6.53;1.70;;;;;;;13.26;79.98;99145.66;10202710;28;20074;-68
2023/11/14 14:07:59;;;;;;;5.72;1.95;;;;;;;13.23;80.17;99146.81;10214374;28;20055;-67
2023/11/14 14:13:02;;;;;;;10.32;2.20;;;;;;;13.24;80.91;99150.31;10208321;28;20062;-66
2023/11/14 14:18:04;;;;;;;5.43;1.27;;;;;;;13.15;80.42;99144.16;10205088;28;20562;-66
2023/11/14 14:23:06;;;;;;;4.07;1.13;;;;;;;13.24;80.29;99144.97;10208531;28;20079;-66
2023/11/14 14:28:08;;;;;;;6.63;1.73;;;;;;;13.23;80.62;99146.00;10205767;28;20473;-66
2023/11/14 14:33:10;;;;;;;5.57;1.38;;;;;;;13.19;80.64;99144.66;10205188;28;20051;-66
2023/11/14 14:38:11;;;;;;;6.07;1.45;;;;;;;13.14;80.72;99130.97;10209053;28;20230;-67
2023/11/14 14:43:13;;;;;;;6.20;1.77;;;;;;;13.14;80.62;99134.47;10208197;28;20414;-68
2023/11/14 14:48:14;;;;;;;3.65;1.27;;;;;;;13.14;80.93;99125.63;10207312;28;20055;-68
2023/11/14 14:53:17;;;;;;;7.32;1.40;;;;;;;13.16;80.96;99121.78;10203707;28;20470;-68
2023/11/14 14:58:19;;;;;;;4.90;1.38;;;;;;;13.06;80.59;99103.25;10210280;28;20390;-67
2023/11/14 15:03:22;;;;;;;2.90;1.30;;;;;;;13.16;81.02;99118.28;10213641;28;20051;-68
2023/11/14 15:08:23;;;;;;;4.38;1.58;;;;;;;13.05;80.52;99109.59;10205392;28;20646;-70
2023/11/14 15:13:25;;;;;;;4.90;1.20;;;;;;;13.04;80.60;99115.94;10206214;28;20047;-66
2023/11/14 15:18:27;;;;;;;6.55;1.75;;;;;;;13.02;80.49;99112.59;10207437;28;20142;-67
2023/11/14 15:23:29;;;;;;;4.75;1.73;;;;;;;12.92;80.36;99098.56;10206736;28;20051;-67
2023/11/14 15:28:30;;;;;;;3.33;0.88;;;;;;;12.93;80.22;99089.56;10203480;28;20074;-67
2023/11/14 15:33:35;;;;;;;2.63;0.90;;;;;;;12.94;80.61;99085.91;10218806;28;20059;-68
2023/11/14 15:38:36;;;;;;;;;;;;;;;12.92;80.23;99069.19;10200458;28;20058;-68
2023/11/14 15:43:38;;;;;;;3.55;0.93;;;;;;;12.88;80.73;99062.50;10204000;28;20832;-68
2023/11/14 15:48:40;;;;;;;4.28;0.80;;;;;;;12.85;80.70;99057.50;10201758;28;20055;-68
2023/11/14 15:53:42;;;;;;;4.07;0.88;;;;;;;12.83;80.57;99046.16;10216508;28;20150;-69
2023/11/14 15:58:45;;;;;;;4.57;0.93;;;;;;;12.84;81.70;99055.84;10208927;28;20063;-69
2023/11/14 16:03:47;;;;;;;5.85;1.23;;;;;;;12.83;83.45;99048.84;10203569;28;20071;-67
2023/11/14 16:08:49;;;;;;;3.53;1.00;;;;;;;12.78;85.49;99057.34;10207386;28;20051;-67
2023/11/14 16:13:50;;;;;;;2.72;0.85;;;;;;;12.82;87.54;99047.16;10204724;28;20135;-67
2023/11/14 16:18:52;;;;;;;3.17;1.00;;;;;;;12.77;88.06;99045.00;10202653;28;20043;-67
2023/11/14 16:23:56;;;;;;;3.78;1.10;;;;;;;12.69;90.22;99035.16;10210079;28;20051;-67
2023/11/14 16:28:58;;;;;;;3.92;1.05;;;;;;;12.58;92.46;99026.63;10204291;28;20055;-68
2023/11/14 16:34:00;;;;;;;2.70;0.93;;;;;;;12.40;94.76;99016.13;10200278;28;20054;-68
2023/11/14 16:39:02;;;;;;;5.07;1.30;;;;;;;12.44;95.40;99018.28;10204527;28;20059;-67
2023/11/14 16:44:04;;;;;;;2.53;0.65;;;;;;;12.31;97.61;99012.59;10204914;28;20051;-69
2023/11/14 16:49:06;;;;;;;2.33;0.82;;;;;;;12.26;98.71;99005.09;10200938;28;20040;-67
2023/11/14 16:54:08;;;;;;;2.15;1.00;;;;;;;12.21;100.00;99020.78;10193273;28;20062;-68
2023/11/14 16:59:11;;;;;;;5.68;1.17;;;;;;;12.22;100.00;99025.13;10206288;28;20062;-68
2023/11/14 17:04:13;;;;;;;4.53;1.50;;;;;;;12.17;100.00;99012.28;10197499;28;20143;-67
2023/11/14 17:09:18;;;;;;;3.92;1.45;;;;;;;12.12;100.00;99013.75;10212279;28;20587;-67
2023/11/14 17:14:19;;;;;;;4.90;1.55;;;;;;;12.13;100.00;98996.72;10206775;28;20058;-67
2023/11/14 17:19:22;;;;;;;3.28;1.10;;;;;;;12.05;100.00;99004.75;10197694;28;20521;-66
2023/11/14 17:24:26;;;;;;;4.97;1.87;;;;;;;12.10;100.00;99005.06;10198913;28;20079;-66
2023/11/14 17:29:27;;;;;;;4.15;1.15;;;;;;;12.00;100.00;98994.56;10205290;28;20102;-66
2023/11/14 17:34:29;;;;;;;3.65;1.23;;;;;;;12.01;100.00;98991.72;10202120;28;20605;-67
2023/11/14 17:39:31;;;;;;;2.65;1.05;;;;;;;11.95;100.00;98986.19;10201936;28;20058;-67
2023/11/14 17:44:33;;;;;;;4.65;1.15;;;;;;;11.96;100.00;98980.69;10204625;28;20333;-66
2023/11/14 17:49:37;;;;;;;3.70;1.65;;;;;;;11.91;100.00;98980.34;10209422;28;20047;-66
2023/11/14 17:54:40;;;;;;;5.00;1.60;;;;;;;11.84;100.00;98974.84;10210622;28;20580;-66
2023/11/14 17:59:45;;;;;;;4.43;1.17;;;;;;;11.73;100.00;98961.78;10209943;28;20630;-67
2023/11/14 18:04:46;;;;;;;3.03;1.20;;;;;;;11.78;100.00;98970.13;10218564;28;20058;-66
2023/11/14 18:09:48;;;;;;;4.47;1.33;;;;;;;11.71;100.00;98957.63;10210735;28;20051;-66
2023/11/14 18:14:50;;;;;;;4.60;1.13;;;;;;;11.61;100.00;98949.78;10210704;28;20169;-69
2023/11/14 18:19:54;;;;;;;2.80;0.90;;;;;;;11.66;100.00;98934.13;10189784;28;20055;-67
2023/11/14 18:24:56;;;;;;;2.03;0.90;;;;;;;11.62;100.00;98935.44;10213259;28;20079;-66
2023/11/14 18:29:58;;;;;;;4.45;0.93;;;;;;;11.63;100.00;98908.66;10206638;28;20062;-66
2023/11/14 18:35:00;;;;;;;4.70;1.00;;;;;;;11.59;100.00;98906.44;10188788;28;20230;-66
2023/11/14 18:40:05;;;;;;;2.17;1.10;;;;;;;11.50;100.00;98876.31;10209972;28;20051;-65
2023/11/14 18:45:07;;;;;;;2.33;0.88;;;;;;;11.60;100.00;98884.97;10198417;28;20047;-67
2023/11/14 18:50:09;;;;;;;3.15;1.35;;;;;;;11.57;100.00;98884.47;10210666;28;20054;-67
2023/11/14 18:55:11;;;;;;;4.15;1.60;;;;;;;11.56;100.00;98891.63;10205748;28;20110;-68
2023/11/14 19:00:14;;;;;;;4.25;1.45;;;;;;;11.41;100.00;98877.25;10213270;28;20134;-67
2023/11/14 19:05:15;;;;;;;2.40;0.93;;;;;;;11.29;100.00;98874.09;10206402;28;20476;-65
2023/11/14 19:10:21;;;;;;;3.08;1.30;;;;;;;11.42;100.00;98870.94;10209476;28;20073;-66
2023/11/14 19:15:23;;;;;;;3.72;1.27;;;;;;;11.48;100.00;98884.47;10219630;28;20068;-67
2023/11/14 19:20:25;;;;;;;4.95;1.70;;;;;;;11.38;100.00;98872.25;10204991;28;20093;-66
2023/11/14 19:25:30;;;;;;;3.92;2.33;;;;;;;11.34;100.00;98861.09;10209715;28;20051;-66
2023/11/14 19:30:32;;;;;;;2.97;2.20;;;;;;;11.24;100.00;98858.56;10206739;28;20059;-66
2023/11/14 19:35:33;;;;;;;4.97;2.20;;;;;;;11.29;100.00;98850.09;10214403;28;20070;-66
2023/11/14 19:40:37;;;;;;;4.30;2.45;;;;;;;11.28;100.00;98857.25;10209184;28;20074;-67
2023/11/14 19:45:40;;;;;;;3.72;2.03;;;;;;;11.20;100.00;98859.91;10206762;28;20674;-67
2023/11/14 19:50:46;;;;;;;4.38;2.40;;;;;;;11.23;100.00;98870.22;10207047;28;20124;-65
2023/11/14 19:55:48;;;;;;;3.25;2.53;;;;;;;11.21;100.00;98856.22;10213082;28;20062;-64
2023/11/14 20:00:53;;;;;;;3.05;2.42;;;;;;;11.17;100.00;98849.56;10208712;28;20106;-64
2023/11/14 20:05:54;;;;;;;3.92;2.35;;;;;;;11.19;100.00;98863.53;10202159;28;20433;-65
2023/11/14 20:10:56;;;;;;;2.00;1.38;;;;;;;11.22;100.00;98862.41;10203290;28;20051;-66
2023/11/14 20:16:00;;;;;;;2.85;1.15;;;;;;;11.20;100.00;98867.03;10210123;28;20138;-66
2023/11/14 20:21:01;;;;;;;1.97;1.20;;;;;;;11.17;100.00;98854.91;10205860;28;20128;-67
2023/11/14 20:26:03;;;;;;;1.95;1.70;;;;;;;11.13;100.00;98858.88;10199449;28;20131;-64
2023/11/14 20:31:05;;;;;;;3.92;1.75;;;;;;;11.12;100.00;98857.19;10203241;28;20987;-64
2023/11/14 20:36:08;;;;;;;1.30;0.90;;;;;;;11.18;100.00;98871.69;10200221;28;20051;-66
2023/11/14 20:41:09;;;;;;;2.35;0.75;;;;;;;11.18;100.00;98879.69;10199015;28;20523;-66
2023/11/14 20:46:12;;;;;;;2.90;0.70;;;;;;;11.22;100.00;98889.84;10206883;28;20079;-67
2023/11/14 20:51:13;;;;;;;1.58;0.82;;;;;;;11.29;100.00;98898.88;10196572;28;20051;-66
2023/11/14 20:56:29;;;;;;;0.97;0.40;;;;;;;11.43;100.00;98915.25;10192491;28;20071;-65
2023/11/14 21:01:30;;;;;;;1.00;0.47;;;;;;;11.52;100.00;98924.94;10204900;28;20058;-65
2023/11/14 21:06:32;;;;;;;2.42;0.60;;;;;;;11.58;100.00;98932.28;10180538;28;20078;-66
2023/11/14 21:11:36;;;;;;;1.75;0.40;;;;;;;11.61;99.81;98958.59;10210134;28;20086;-66
2023/11/14 21:16:38;;;;;;;1.43;0.47;;;;;;;11.66;100.00;98950.97;10206257;28;20744;-65
2023/11/14 21:21:43;;;;;;;1.05;0.50;;;;;;;11.72;98.70;98976.13;10195158;28;20496;-64
2023/11/14 21:26:45;;;;;;;1.52;0.30;;;;;;;11.76;96.99;98971.31;10207852;28;20058;-66
2023/11/14 21:31:48;;;;;;;0.93;0.20;;;;;;;11.80;95.21;98991.28;10185683;28;20781;-67
2023/11/14 21:36:49;;;;;;;0.98;0.10;;;;;;;11.76;94.85;99000.63;10181023;28;20051;-66
2023/11/14 21:41:50;;;;;;;1.70;0.30;;;;;;;11.79;92.43;99016.31;10199919;28;20105;-66
2023/11/14 21:46:52;;;;;;;1.35;0.30;;;;;;;11.77;93.19;99034.28;10197671;28;20127;-66
2023/11/14 21:51:53;;;;;;;1.17;0.40;;;;;;;11.66;93.90;99057.59;10197332;28;20051;-66
2023/11/14 21:56:55;;;;;;;1.85;0.28;;;;;;;11.76;93.01;99075.28;10200721;28;20245;-66
2023/11/14 22:01:58;;;;;;;1.60;0.20;;;;;;;11.73;93.95;99095.09;10191943;28;20051;-67
2023/11/14 22:07:00;;;;;;;1.23;0.20;;;;;;;11.73;93.53;99110.25;10205606;28;21229;-66
2023/11/14 22:12:02;;;;;;;1.17;0.35;;;;;;;11.70;93.57;99132.72;10212360;28;20067;-66
2023/11/14 22:17:05;;;;;;;1.75;0.13;;;;;;;11.70;93.86;99147.91;10196769;28;20418;-66
2023/11/14 22:22:07;;;;;;;1.17;0.20;;;;;;;11.74;94.00;99154.56;10200415;28;20038;-67
2023/11/14 22:27:08;;;;;;;1.38;0.10;;;;;;;11.57;96.01;99180.28;10205105;28;20054;-64
2023/11/14 22:32:10;;;;;;;0.82;0.10;;;;;;;11.48;98.95;99198.03;10201162;28;20149;-66
2023/11/14 22:37:11;;;;;;;1.15;0.20;;;;;;;11.49;99.62;99221.88;10218763;28;20078;-66
2023/11/14 22:42:14;;;;;;;2.13;0.40;;;;;;;11.38;100.00;99221.28;10212258;28;20119;-67
2023/11/14 22:47:17;;;;;;;1.58;0.30;;;;;;;11.53;100.00;99249.06;10204563;28;20128;-66
2023/11/14 22:52:18;;;;;;;1.55;0.10;;;;;;;11.60;100.00;99263.44;10209272;28;20066;-67
2023/11/14 22:57:19;;;;;;;0.85;0.10;;;;;;;11.57;100.00;99278.91;10213679;28;20122;-65
2023/11/14 23:02:21;;;;;;;0.52;0.00;;;;;;;11.57;98.95;99281.56;10213517;28;20142;-66
2023/11/14 23:07:24;;;;;;;1.27;0.30;;;;;;;11.57;97.68;99278.91;10209282;28;20044;-66
2023/11/14 23:12:26;;;;;;;1.00;0.08;;;;;;;11.60;96.24;99295.41;10198764;28;20055;-66
2023/11/14 23:17:27;;;;;;;1.05;0.20;;;;;;;11.62;96.68;99301.44;10204980;28;20055;-65